createdAt,value
2022-09-09T00:00:00.227Z,15.7
2022-09-09T00:01:03.417Z,15.7
2022-09-09T00:02:08.618Z,15.7
2022-09-09T00:03:10.241Z,15.6
2022-09-09T00:04:04.990Z,15.6
2022-09-09T00:05:09.146Z,15.6
2022-09-09T00:06:10.090Z,15.6
2022-09-09T00:07:01.140Z,15.7
2022-09-09T00:08:02.497Z,15.7
2022-09-09T00:09:06.534Z,15.6
2022-09-09T00:10:00.136Z,15.6
2022-09-09T00:11:03.482Z,15.7
2022-09-09T00:12:00.140Z,15.7
2022-09-09T00:13:05.425Z,15.6
2022-09-09T00:14:02.820Z,15.6
2022-09-09T00:15:05.037Z,15.6
2022-09-09T00:16:07.617Z,15.6
2022-09-09T00:17:03.253Z,15.5
2022-09-09T00:18:10.086Z,15.5
2022-09-09T00:19:00.136Z,15.5
2022-09-09T00:20:02.994Z,15.5
2022-09-09T00:21:00.131Z,15.3
2022-09-09T00:22:03.397Z,15.3
2022-09-09T00:23:09.218Z,15.3
2022-09-09T00:24:01.662Z,15.3
2022-09-09T00:25:10.096Z,15.1
2022-09-09T00:26:01.140Z,15.1
2022-09-09T00:27:04.293Z,15.3
2022-09-09T00:28:00.246Z,15.3
2022-09-09T00:29:07.437Z,15.3
2022-09-09T00:30:02.154Z,15.3
2022-09-09T00:31:08.481Z,15.3
2022-09-09T00:32:04.640Z,15.3
2022-09-09T00:33:01.452Z,15.3
2022-09-09T00:34:04.830Z,15.3
2022-09-09T00:35:02.784Z,15.1
2022-09-09T00:36:00.766Z,15.1
2022-09-09T00:37:00.162Z,15.2
2022-09-09T00:38:04.632Z,15.2
2022-09-09T00:39:01.103Z,15.2
2022-09-09T00:40:03.487Z,15.2
2022-09-09T00:41:03.149Z,15.1
2022-09-09T00:42:10.093Z,15.1
2022-09-09T00:43:10.091Z,15.2
2022-09-09T00:44:10.093Z,15.2
2022-09-09T00:45:09.157Z,15.1
2022-09-09T00:46:10.160Z,15.1
2022-09-09T00:47:07.502Z,15.2
2022-09-09T00:48:05.783Z,15.2
2022-09-09T00:49:00.128Z,15.2
2022-09-09T00:50:01.368Z,15.2
2022-09-09T00:51:05.289Z,15.1
2022-09-09T00:52:07.794Z,15.1
2022-09-09T00:53:01.141Z,15.1
2022-09-09T00:54:10.083Z,15.1
2022-09-09T00:55:10.095Z,15.1
2022-09-09T00:56:10.091Z,15.1
2022-09-09T00:57:06.320Z,15.1
2022-09-09T00:58:00.163Z,15.1
2022-09-09T00:59:06.284Z,15.0
2022-09-09T01:00:10.109Z,15.0
2022-09-09T01:01:00.225Z,14.9
2022-09-09T01:02:00.324Z,14.9
2022-09-09T01:03:10.104Z,14.9
2022-09-09T01:04:00.252Z,14.9
2022-09-09T01:05:05.015Z,14.9
2022-09-09T01:06:05.479Z,14.9
2022-09-09T01:07:09.037Z,15.0
2022-09-09T01:08:02.353Z,15.0
2022-09-09T01:09:10.094Z,15.0
2022-09-09T01:10:03.698Z,15.0
2022-09-09T01:11:00.760Z,15.1
2022-09-09T01:12:03.472Z,15.1
2022-09-09T01:13:02.755Z,14.8
2022-09-09T01:14:10.092Z,14.8
2022-09-09T01:15:03.429Z,14.8
2022-09-09T01:16:01.847Z,14.8
2022-09-09T01:17:03.369Z,14.8
2022-09-09T01:18:04.160Z,14.8
2022-09-09T01:19:01.128Z,14.9
2022-09-09T01:20:03.408Z,14.9
2022-09-09T01:21:03.390Z,14.6
2022-09-09T01:22:06.239Z,14.6
2022-09-09T01:23:03.412Z,14.8
2022-09-09T01:24:08.314Z,14.8
2022-09-09T01:25:03.415Z,14.8
2022-09-09T01:26:10.102Z,14.8
2022-09-09T01:27:02.119Z,14.7
2022-09-09T01:28:02.401Z,14.7
2022-09-09T01:29:00.343Z,14.7
2022-09-09T01:30:00.260Z,14.7
2022-09-09T01:31:01.263Z,14.6
2022-09-09T01:32:01.395Z,14.6
2022-09-09T01:33:00.183Z,14.6
2022-09-09T01:34:00.185Z,14.6
2022-09-09T01:35:01.606Z,14.7
2022-09-09T01:36:06.893Z,14.7
2022-09-09T01:37:08.646Z,14.8
2022-09-09T01:38:00.218Z,14.8
2022-09-09T01:39:00.176Z,14.7
2022-09-09T01:40:00.431Z,14.7
2022-09-09T01:41:00.637Z,14.7
2022-09-09T01:42:00.982Z,14.7
2022-09-09T01:43:00.266Z,14.8
2022-09-09T01:44:00.220Z,14.8
2022-09-09T01:45:00.339Z,14.7
2022-09-09T01:46:01.261Z,14.7
2022-09-09T01:47:00.156Z,14.7
2022-09-09T01:48:00.384Z,14.7
2022-09-09T01:49:01.952Z,14.7
2022-09-09T01:50:00.941Z,14.7
2022-09-09T01:51:00.161Z,14.6
2022-09-09T01:52:00.797Z,14.6
2022-09-09T01:53:01.276Z,14.6
2022-09-09T01:54:00.979Z,14.6
2022-09-09T01:55:00.278Z,14.6
2022-09-09T01:56:00.182Z,14.6
2022-09-09T01:57:01.136Z,14.5
2022-09-09T01:58:08.274Z,14.5
2022-09-09T01:59:10.089Z,14.4
2022-09-09T02:00:08.747Z,14.4
2022-09-09T02:01:05.717Z,14.5
2022-09-09T02:02:07.472Z,14.5
2022-09-09T02:03:03.415Z,14.4
2022-09-09T02:04:03.468Z,14.4
2022-09-09T02:05:05.827Z,14.4
2022-09-09T02:06:08.452Z,14.4
2022-09-09T02:07:00.294Z,14.5
2022-09-09T02:08:03.270Z,14.5
2022-09-09T02:09:03.205Z,14.5
2022-09-09T02:10:05.257Z,14.5
2022-09-09T02:11:10.085Z,14.5
2022-09-09T02:12:10.092Z,14.5
2022-09-09T02:13:04.002Z,14.5
2022-09-09T02:14:01.252Z,14.5
2022-09-09T02:15:03.597Z,14.4
2022-09-09T02:16:08.512Z,14.4
2022-09-09T02:17:03.504Z,14.4
2022-09-09T02:18:01.070Z,14.4
2022-09-09T02:19:06.143Z,14.5
2022-09-09T02:20:04.754Z,14.5
2022-09-09T02:21:00.613Z,14.4
2022-09-09T02:22:00.798Z,14.4
2022-09-09T02:23:01.118Z,14.5
2022-09-09T02:24:01.659Z,14.5
2022-09-09T02:25:00.439Z,14.6
2022-09-09T02:26:00.210Z,14.6
2022-09-09T02:27:02.551Z,14.5
2022-09-09T02:28:01.497Z,14.5
2022-09-09T02:29:02.375Z,14.6
2022-09-09T02:30:01.114Z,14.6
2022-09-09T02:31:00.796Z,14.6
2022-09-09T02:32:03.101Z,14.6
2022-09-09T02:33:03.236Z,14.6
2022-09-09T02:34:01.586Z,14.6
2022-09-09T02:35:03.563Z,14.6
2022-09-09T02:36:01.179Z,14.6
2022-09-09T02:37:01.076Z,14.7
2022-09-09T02:38:03.716Z,14.7
2022-09-09T02:39:00.637Z,14.7
2022-09-09T02:40:00.429Z,14.7
2022-09-09T02:41:00.298Z,14.6
2022-09-09T02:42:00.156Z,14.6
2022-09-09T02:43:00.149Z,14.6
2022-09-09T02:44:00.358Z,14.6
2022-09-09T02:45:00.187Z,14.6
2022-09-09T02:46:00.216Z,14.6
2022-09-09T02:47:09.875Z,14.7
2022-09-09T02:48:09.213Z,14.7
2022-09-09T02:49:10.089Z,14.7
2022-09-09T02:50:10.094Z,14.7
2022-09-09T02:51:07.607Z,14.5
2022-09-09T02:52:04.002Z,14.5
2022-09-09T02:53:00.144Z,14.6
2022-09-09T02:54:10.084Z,14.6
2022-09-09T02:55:06.926Z,14.6
2022-09-09T02:56:00.126Z,14.6
2022-09-09T02:57:06.739Z,14.6
2022-09-09T02:58:01.714Z,14.6
2022-09-09T02:59:02.830Z,14.7
2022-09-09T03:00:00.309Z,14.7
2022-09-09T03:01:00.204Z,14.6
2022-09-09T03:02:00.245Z,14.6
2022-09-09T03:03:00.171Z,14.6
2022-09-09T03:04:00.225Z,14.6
2022-09-09T03:05:00.143Z,14.6
2022-09-09T03:06:00.192Z,14.6
2022-09-09T03:07:00.184Z,14.7
2022-09-09T03:08:00.199Z,14.7
2022-09-09T03:09:00.142Z,14.6
2022-09-09T03:10:00.176Z,14.6
2022-09-09T03:11:00.172Z,14.5
2022-09-09T03:12:00.219Z,14.5
2022-09-09T03:13:00.176Z,14.6
2022-09-09T03:14:00.135Z,14.6
2022-09-09T03:15:00.151Z,14.5
2022-09-09T03:16:00.156Z,14.5
2022-09-09T03:17:00.238Z,14.5
2022-09-09T03:18:00.670Z,14.5
2022-09-09T03:19:00.610Z,14.6
2022-09-09T03:20:00.275Z,14.6
2022-09-09T03:21:00.559Z,14.6
2022-09-09T03:22:00.155Z,14.6
2022-09-09T03:23:00.352Z,14.6
2022-09-09T03:24:00.198Z,14.6
2022-09-09T03:25:00.290Z,14.6
2022-09-09T03:26:00.176Z,14.6
2022-09-09T03:27:00.151Z,14.7
2022-09-09T03:28:00.246Z,14.7
2022-09-09T03:29:00.149Z,14.6
2022-09-09T03:30:00.156Z,14.6
2022-09-09T03:31:00.699Z,14.6
2022-09-09T03:32:00.224Z,14.6
2022-09-09T03:33:00.143Z,14.6
2022-09-09T03:34:00.159Z,14.6
2022-09-09T03:35:00.150Z,14.8
2022-09-09T03:36:00.251Z,14.8
2022-09-09T03:37:00.168Z,14.6
2022-09-09T03:38:00.158Z,14.6
2022-09-09T03:39:00.162Z,14.7
2022-09-09T03:40:00.380Z,14.7
2022-09-09T03:41:00.555Z,14.6
2022-09-09T03:42:00.310Z,14.6
2022-09-09T03:43:00.153Z,14.6
2022-09-09T03:44:00.310Z,14.6
2022-09-09T03:45:00.155Z,14.6
2022-09-09T03:46:00.308Z,14.6
2022-09-09T03:47:00.157Z,14.6
2022-09-09T03:48:00.199Z,14.6
2022-09-09T03:49:00.150Z,14.6
2022-09-09T03:50:00.207Z,14.6
2022-09-09T03:51:00.155Z,14.6
2022-09-09T03:52:00.177Z,14.6
2022-09-09T03:53:00.159Z,14.7
2022-09-09T03:54:00.143Z,14.7
2022-09-09T03:55:00.157Z,14.6
2022-09-09T03:56:00.145Z,14.6
2022-09-09T03:57:00.142Z,14.6
2022-09-09T03:58:00.151Z,14.6
2022-09-09T03:59:00.239Z,14.7
2022-09-09T04:00:01.529Z,14.7
2022-09-09T04:01:01.470Z,14.7
2022-09-09T04:02:00.343Z,14.7
2022-09-09T04:03:00.152Z,14.8
2022-09-09T04:04:00.185Z,14.8
2022-09-09T04:05:00.148Z,14.9
2022-09-09T04:06:01.202Z,14.9
2022-09-09T04:07:00.255Z,14.8
2022-09-09T04:08:00.300Z,14.8
2022-09-09T04:09:00.159Z,14.9
2022-09-09T04:10:00.146Z,14.9
2022-09-09T04:11:00.553Z,14.6
2022-09-09T04:12:00.239Z,14.6
2022-09-09T04:13:00.151Z,14.7
2022-09-09T04:14:00.144Z,14.7
2022-09-09T04:15:00.160Z,14.8
2022-09-09T04:16:00.902Z,14.8
2022-09-09T04:17:00.151Z,14.9
2022-09-09T04:18:00.159Z,14.9
2022-09-09T04:19:00.152Z,14.9
2022-09-09T04:20:00.241Z,14.9
2022-09-09T04:21:00.449Z,14.9
2022-09-09T04:22:00.168Z,14.9
2022-09-09T04:23:00.145Z,14.9
2022-09-09T04:24:00.175Z,14.9
2022-09-09T04:25:00.144Z,15.0
2022-09-09T04:26:01.108Z,15.0
2022-09-09T04:27:00.151Z,15.0
2022-09-09T04:28:00.167Z,15.0
2022-09-09T04:29:00.274Z,14.8
2022-09-09T04:30:00.165Z,14.8
2022-09-09T04:31:08.558Z,14.8
2022-09-09T04:32:00.342Z,14.8
2022-09-09T04:33:00.142Z,14.9
2022-09-09T04:34:00.145Z,14.9
2022-09-09T04:35:00.300Z,14.9
2022-09-09T04:36:00.259Z,14.9
2022-09-09T04:37:00.147Z,14.9
2022-09-09T04:38:00.170Z,14.9
2022-09-09T04:39:00.159Z,14.9
2022-09-09T04:40:00.312Z,14.9
2022-09-09T04:41:00.152Z,15.0
2022-09-09T04:42:00.153Z,15.0
2022-09-09T04:43:00.975Z,14.9
2022-09-09T04:44:00.257Z,14.9
2022-09-09T04:45:00.152Z,14.8
2022-09-09T04:46:00.230Z,14.8
2022-09-09T04:47:00.144Z,14.9
2022-09-09T04:48:00.423Z,14.9
2022-09-09T04:49:00.158Z,15.0
2022-09-09T04:50:00.148Z,15.0
2022-09-09T04:51:02.016Z,15.0
2022-09-09T04:52:00.178Z,15.0
2022-09-09T04:53:00.891Z,15.1
2022-09-09T04:54:00.151Z,15.1
2022-09-09T04:55:00.149Z,14.9
2022-09-09T04:56:02.169Z,14.9
2022-09-09T04:57:00.148Z,15.0
2022-09-09T04:58:08.079Z,15.0
2022-09-09T04:59:00.237Z,15.0
2022-09-09T05:00:00.296Z,15.0
2022-09-09T05:01:04.388Z,15.0
2022-09-09T05:02:00.209Z,15.0
2022-09-09T05:03:02.542Z,15.0
2022-09-09T05:04:00.245Z,15.0
2022-09-09T05:05:00.151Z,15.0
2022-09-09T05:06:04.124Z,15.0
2022-09-09T05:07:00.157Z,15.1
2022-09-09T05:08:00.998Z,15.1
2022-09-09T05:09:00.143Z,15.0
2022-09-09T05:10:00.167Z,15.0
2022-09-09T05:11:00.164Z,15.1
2022-09-09T05:12:00.202Z,15.1
2022-09-09T05:13:00.226Z,15.1
2022-09-09T05:14:00.161Z,15.1
2022-09-09T05:15:00.172Z,15.1
2022-09-09T05:16:00.262Z,15.1
2022-09-09T05:17:00.265Z,15.0
2022-09-09T05:18:00.759Z,15.0
2022-09-09T05:19:00.252Z,15.1
2022-09-09T05:20:00.270Z,15.1
2022-09-09T05:21:00.147Z,15.2
2022-09-09T05:22:00.143Z,15.2
2022-09-09T05:23:00.156Z,15.1
2022-09-09T05:24:00.189Z,15.1
2022-09-09T05:25:00.164Z,15.1
2022-09-09T05:26:00.526Z,15.1
2022-09-09T05:27:00.262Z,15.1
2022-09-09T05:28:00.212Z,15.1
2022-09-09T05:29:00.163Z,15.1
2022-09-09T05:30:00.277Z,15.1
2022-09-09T05:31:01.455Z,15.1
2022-09-09T05:32:00.328Z,15.1
2022-09-09T05:33:00.262Z,15.1
2022-09-09T05:34:00.169Z,15.1
2022-09-09T05:35:00.152Z,15.2
2022-09-09T05:36:04.827Z,15.2
2022-09-09T05:37:00.148Z,15.2
2022-09-09T05:38:00.157Z,15.2
2022-09-09T05:39:00.149Z,15.0
2022-09-09T05:40:00.372Z,15.0
2022-09-09T05:41:00.856Z,15.1
2022-09-09T05:42:00.148Z,15.1
2022-09-09T05:43:00.269Z,15.1
2022-09-09T05:44:00.216Z,15.1
2022-09-09T05:45:00.153Z,15.0
2022-09-09T05:46:01.465Z,15.0
2022-09-09T05:47:00.274Z,15.2
2022-09-09T05:48:00.220Z,15.2
2022-09-09T05:49:00.139Z,15.0
2022-09-09T05:50:00.168Z,15.0
2022-09-09T05:51:00.731Z,15.1
2022-09-09T05:52:00.242Z,15.1
2022-09-09T05:53:00.170Z,15.1
2022-09-09T05:54:00.141Z,15.1
2022-09-09T05:55:00.162Z,15.1
2022-09-09T05:56:00.132Z,15.1
2022-09-09T05:57:00.152Z,15.1
2022-09-09T05:58:00.158Z,15.1
2022-09-09T05:59:00.553Z,14.9
2022-09-09T06:00:00.231Z,14.9
2022-09-09T06:01:02.248Z,15.1
2022-09-09T06:02:00.345Z,15.1
2022-09-09T06:03:00.325Z,15.2
2022-09-09T06:04:00.514Z,15.2
2022-09-09T06:06:01.355Z,15.2
2022-09-09T06:07:00.208Z,15.2
2022-09-09T06:08:00.201Z,15.2
2022-09-09T06:09:00.150Z,15.1
2022-09-09T06:10:00.148Z,15.1
2022-09-09T06:11:02.290Z,15.2
2022-09-09T06:12:00.253Z,15.2
2022-09-09T06:13:00.259Z,15.1
2022-09-09T06:14:01.571Z,15.1
2022-09-09T06:15:00.221Z,15.0
2022-09-09T06:16:00.391Z,15.0
2022-09-09T06:17:00.374Z,15.2
2022-09-09T06:18:00.226Z,15.2
2022-09-09T06:19:00.763Z,15.1
2022-09-09T06:20:00.463Z,15.1
2022-09-09T06:21:01.629Z,15.3
2022-09-09T06:22:00.273Z,15.3
2022-09-09T06:23:00.328Z,15.1
2022-09-09T06:24:01.204Z,15.1
2022-09-09T06:25:00.582Z,15.2
2022-09-09T06:26:01.678Z,15.2
2022-09-09T06:27:00.552Z,15.2
2022-09-09T06:28:00.297Z,15.2
2022-09-09T06:29:01.086Z,15.3
2022-09-09T06:31:01.559Z,15.2
2022-09-09T06:32:00.319Z,15.2
2022-09-09T06:33:00.146Z,15.4
2022-09-09T06:34:00.666Z,15.4
2022-09-09T06:35:00.148Z,15.4
2022-09-09T06:36:00.530Z,15.4
2022-09-09T06:37:00.167Z,15.4
2022-09-09T06:38:00.163Z,15.4
2022-09-09T06:39:00.187Z,15.3
2022-09-09T06:40:00.411Z,15.3
2022-09-09T06:41:00.144Z,15.4
2022-09-09T06:42:00.140Z,15.4
2022-09-09T06:43:00.148Z,15.5
2022-09-09T06:44:00.197Z,15.5
2022-09-09T06:45:00.140Z,15.5
2022-09-09T06:46:10.123Z,15.5
2022-09-09T06:47:00.321Z,15.6
2022-09-09T06:48:00.156Z,15.6
2022-09-09T06:49:00.306Z,15.6
2022-09-09T06:50:00.153Z,15.6
2022-09-09T06:51:04.564Z,15.6
2022-09-09T06:52:00.202Z,15.6
2022-09-09T06:53:00.150Z,15.7
2022-09-09T06:54:00.694Z,15.7
2022-09-09T06:55:00.149Z,15.8
2022-09-09T06:56:01.199Z,15.8
2022-09-09T06:57:02.482Z,15.7
2022-09-09T06:58:00.149Z,15.7
2022-09-09T06:59:01.470Z,15.7
2022-09-09T07:00:00.247Z,15.7
2022-09-09T07:01:02.487Z,15.7
2022-09-09T07:02:00.241Z,15.7
2022-09-09T07:03:00.143Z,15.6
2022-09-09T07:04:00.344Z,15.6
2022-09-09T07:05:00.145Z,15.7
2022-09-09T07:06:00.622Z,15.7
2022-09-09T07:07:00.157Z,15.8
2022-09-09T07:08:00.161Z,15.8
2022-09-09T07:09:01.509Z,15.8
2022-09-09T07:10:00.157Z,15.8
2022-09-09T07:11:04.227Z,15.9
2022-09-09T07:12:00.235Z,15.9
2022-09-09T07:13:00.154Z,15.9
2022-09-09T07:14:00.927Z,15.9
2022-09-09T07:15:00.152Z,15.9
2022-09-09T07:16:04.826Z,15.9
2022-09-09T07:17:00.156Z,16.0
2022-09-09T07:18:01.220Z,16.0
2022-09-09T07:19:00.273Z,16.1
2022-09-09T07:20:00.259Z,16.1
2022-09-09T07:21:00.970Z,16.0
2022-09-09T07:22:00.162Z,16.0
2022-09-09T07:23:00.145Z,16.2
2022-09-09T07:24:00.302Z,16.2
2022-09-09T07:25:00.157Z,16.2
2022-09-09T07:26:00.158Z,16.2
2022-09-09T07:27:00.143Z,16.2
2022-09-09T07:28:00.219Z,16.2
2022-09-09T07:29:00.380Z,16.2
2022-09-09T07:30:00.266Z,16.2
2022-09-09T07:31:00.974Z,16.2
2022-09-09T07:32:00.247Z,16.2
2022-09-09T07:33:00.144Z,16.2
2022-09-09T07:34:00.814Z,16.2
2022-09-09T07:35:00.151Z,16.3
2022-09-09T07:36:03.465Z,16.3
2022-09-09T07:37:00.200Z,16.4
2022-09-09T07:38:00.559Z,16.4
2022-09-09T07:39:02.144Z,16.5
2022-09-09T07:40:00.380Z,16.5
2022-09-09T07:41:04.158Z,16.5
2022-09-09T07:42:00.143Z,16.5
2022-09-09T07:43:00.180Z,16.5
2022-09-09T07:44:03.610Z,16.5
2022-09-09T07:45:00.166Z,16.6
2022-09-09T07:46:00.350Z,16.6
2022-09-09T07:47:00.483Z,16.7
2022-09-09T07:48:00.339Z,16.7
2022-09-09T07:49:00.147Z,16.8
2022-09-09T07:50:00.166Z,16.8
2022-09-09T07:51:09.527Z,17.0
2022-09-09T07:52:00.283Z,17.0
2022-09-09T07:53:00.147Z,17.0
2022-09-09T07:54:01.152Z,17.0
2022-09-09T07:55:01.498Z,16.9
2022-09-09T07:56:04.523Z,16.9
2022-09-09T07:57:00.416Z,16.9
2022-09-09T07:58:00.143Z,16.9
2022-09-09T07:59:00.195Z,16.9
2022-09-09T08:00:00.219Z,16.9
2022-09-09T08:01:00.163Z,17.0
2022-09-09T08:02:00.221Z,17.0
2022-09-09T08:03:00.214Z,16.8
2022-09-09T08:04:01.503Z,16.8
2022-09-09T08:05:00.152Z,16.9
2022-09-09T08:06:01.041Z,16.9
2022-09-09T08:07:00.753Z,16.9
2022-09-09T08:08:00.207Z,16.9
2022-09-09T08:09:00.201Z,16.9
2022-09-09T08:10:00.190Z,16.9
2022-09-09T08:11:05.279Z,16.8
2022-09-09T08:12:00.303Z,16.8
2022-09-09T08:13:17.300Z,16.7
2022-09-09T08:14:02.403Z,16.7
2022-09-09T08:15:00.153Z,16.9
2022-09-09T08:16:04.773Z,16.9
2022-09-09T08:17:00.184Z,16.9
2022-09-09T08:18:00.144Z,16.9
2022-09-09T08:19:00.151Z,16.9
2022-09-09T08:20:00.183Z,16.9
2022-09-09T08:21:10.098Z,17.0
2022-09-09T08:22:00.152Z,17.0
2022-09-09T08:23:00.149Z,17.0
2022-09-09T08:24:00.846Z,17.0
2022-09-09T08:25:00.143Z,17.2
2022-09-09T08:26:04.597Z,17.2
2022-09-09T08:27:00.144Z,17.2
2022-09-09T08:28:00.198Z,17.2
2022-09-09T08:29:00.569Z,17.2
2022-09-09T08:30:00.180Z,17.2
2022-09-09T08:31:10.214Z,17.5
2022-09-09T08:32:00.172Z,17.5
2022-09-09T08:33:00.147Z,17.5
2022-09-09T08:34:00.807Z,17.5
2022-09-09T08:35:01.523Z,17.3
2022-09-09T08:36:00.168Z,17.3
2022-09-09T08:37:00.150Z,17.3
2022-09-09T08:38:00.147Z,17.3
2022-09-09T08:39:00.417Z,17.4
2022-09-09T08:40:00.348Z,17.4
2022-09-09T08:41:07.082Z,17.4
2022-09-09T08:42:03.408Z,17.4
2022-09-09T08:43:03.270Z,17.4
2022-09-09T08:44:05.087Z,17.4
2022-09-09T08:45:10.092Z,17.4
2022-09-09T08:46:00.180Z,17.4
2022-09-09T08:47:00.130Z,17.3
2022-09-09T08:48:00.142Z,17.3
2022-09-09T08:49:04.658Z,17.4
2022-09-09T08:50:03.934Z,17.4
2022-09-09T08:51:00.195Z,17.2
2022-09-09T08:52:00.382Z,17.2
2022-09-09T08:53:02.728Z,17.4
2022-09-09T08:54:02.698Z,17.4
2022-09-09T08:55:10.095Z,17.4
2022-09-09T08:56:02.351Z,17.4
2022-09-09T08:57:00.184Z,17.5
2022-09-09T08:58:05.218Z,17.5
2022-09-09T08:59:00.867Z,17.5
2022-09-09T09:00:00.190Z,17.5
2022-09-09T09:01:10.275Z,17.3
2022-09-09T09:02:08.097Z,17.3
2022-09-09T09:03:09.464Z,17.4
2022-09-09T09:04:06.032Z,17.4
2022-09-09T09:05:10.125Z,17.3
2022-09-09T09:06:10.086Z,17.3
2022-09-09T09:07:07.209Z,17.5
2022-09-09T09:08:08.194Z,17.5
2022-09-09T09:09:05.946Z,17.7
2022-09-09T09:10:01.135Z,17.7
2022-09-09T09:11:00.154Z,17.8
2022-09-09T09:12:01.721Z,17.8
2022-09-09T09:13:00.519Z,17.6
2022-09-09T09:14:03.341Z,17.6
2022-09-09T09:15:00.161Z,17.7
2022-09-09T09:16:02.328Z,17.7
2022-09-09T09:17:03.215Z,17.8
2022-09-09T09:18:00.143Z,17.8
2022-09-09T09:19:00.550Z,17.8
2022-09-09T09:20:00.266Z,17.8
2022-09-09T09:21:06.179Z,17.8
2022-09-09T09:22:03.392Z,17.8
2022-09-09T09:23:02.236Z,17.8
2022-09-09T09:24:00.808Z,17.8
2022-09-09T09:25:10.089Z,17.8
2022-09-09T09:26:00.322Z,17.8
2022-09-09T09:27:10.087Z,17.8
2022-09-09T09:28:03.485Z,17.8
2022-09-09T09:29:03.657Z,17.8
2022-09-09T09:30:22.890Z,17.8
2022-09-09T09:31:03.839Z,17.8
2022-09-09T09:32:01.992Z,17.8
2022-09-09T09:33:02.578Z,17.6
2022-09-09T09:34:00.146Z,17.6
2022-09-09T09:35:01.235Z,17.5
2022-09-09T09:36:00.171Z,17.5
2022-09-09T09:37:01.002Z,17.6
2022-09-09T09:40:08.175Z,17.7
2022-09-09T09:41:00.179Z,17.9
2022-09-09T09:45:10.131Z,17.7
2022-09-09T09:46:17.717Z,17.7
2022-09-09T09:47:10.099Z,17.7
2022-09-09T09:48:05.385Z,17.7
2022-09-09T09:49:01.066Z,17.8
2022-09-09T09:50:00.672Z,17.8
2022-09-09T09:51:09.715Z,18.0
2022-09-09T09:52:01.042Z,18.0
2022-09-09T09:53:04.347Z,17.9
2022-09-09T09:54:05.665Z,17.9
2022-09-09T09:55:07.303Z,17.9
2022-09-09T09:56:00.143Z,17.9
2022-09-09T09:57:08.856Z,17.8
2022-09-09T09:58:02.589Z,17.8
2022-09-09T09:59:01.834Z,18.0
2022-09-09T10:00:02.526Z,18.0
2022-09-09T10:01:00.615Z,18.0
2022-09-09T10:02:10.143Z,18.0
2022-09-09T10:03:00.411Z,17.9
2022-09-09T10:04:01.138Z,17.9
2022-09-09T10:05:01.013Z,18.2
2022-09-09T10:06:00.146Z,18.2
2022-09-09T10:07:09.714Z,18.2
2022-09-09T10:08:04.260Z,18.2
2022-09-09T10:09:01.451Z,18.4
2022-09-09T10:10:00.155Z,18.4
2022-09-09T10:11:07.610Z,18.5
2022-09-09T10:12:06.761Z,18.5
2022-09-09T10:13:09.666Z,18.4
2022-09-09T10:14:10.088Z,18.4
2022-09-09T10:15:00.143Z,18.2
2022-09-09T10:16:10.122Z,18.2
2022-09-09T10:17:10.090Z,18.5
2022-09-09T10:18:10.097Z,18.5
2022-09-09T10:19:02.821Z,18.6
2022-09-09T10:20:10.121Z,18.6
2022-09-09T10:21:10.104Z,18.6
2022-09-09T10:22:10.093Z,18.6
2022-09-09T10:23:10.088Z,18.5
2022-09-09T10:24:10.109Z,18.5
2022-09-09T10:25:03.388Z,18.4
2022-09-09T10:26:09.866Z,18.4
2022-09-09T10:27:05.431Z,18.5
2022-09-09T10:28:05.903Z,18.5
2022-09-09T10:29:00.138Z,18.5
2022-09-09T10:30:04.116Z,18.5
2022-09-09T10:31:10.205Z,18.4
2022-09-09T10:32:06.321Z,18.4
2022-09-09T10:33:04.804Z,18.3
2022-09-09T10:34:01.145Z,18.3
2022-09-09T10:35:04.726Z,18.4
2022-09-09T10:36:10.091Z,18.4
2022-09-09T10:37:01.154Z,18.4
2022-09-09T10:38:09.628Z,18.4
2022-09-09T10:39:03.918Z,18.5
2022-09-09T10:40:08.588Z,18.5
2022-09-09T10:41:01.135Z,18.0
2022-09-09T10:42:00.138Z,18.0
2022-09-09T10:43:07.848Z,18.2
2022-09-09T10:44:10.090Z,18.2
2022-09-09T10:45:06.368Z,18.4
2022-09-09T10:46:10.184Z,18.4
2022-09-09T10:47:10.087Z,18.5
2022-09-09T10:48:06.962Z,18.5
2022-09-09T10:49:10.092Z,18.2
2022-09-09T10:50:07.503Z,18.2
2022-09-09T10:51:09.811Z,18.3
2022-09-09T10:52:01.140Z,18.3
2022-09-09T10:53:10.087Z,18.2
2022-09-09T10:54:01.144Z,18.2
2022-09-09T10:55:02.862Z,18.3
2022-09-09T10:56:06.711Z,18.3
2022-09-09T10:57:04.087Z,18.3
2022-09-09T10:58:02.485Z,18.3
2022-09-09T10:59:02.429Z,18.2
2022-09-09T11:00:02.982Z,18.2
2022-09-09T11:01:06.518Z,18.0
2022-09-09T11:02:05.502Z,18.0
2022-09-09T11:03:00.945Z,18.0
2022-09-09T11:04:03.564Z,18.0
2022-09-09T11:05:03.450Z,18.0
2022-09-09T11:06:03.520Z,18.0
2022-09-09T11:07:01.817Z,18.0
2022-09-09T11:08:04.716Z,18.0
2022-09-09T11:09:00.860Z,18.2
2022-09-09T11:10:02.224Z,18.2
2022-09-09T11:11:00.131Z,17.8
2022-09-09T11:12:00.843Z,17.8
2022-09-09T11:13:03.536Z,17.9
2022-09-09T11:14:03.471Z,17.9
2022-09-09T11:15:10.096Z,17.7
2022-09-09T11:16:04.801Z,17.7
2022-09-09T11:17:02.001Z,17.9
2022-09-09T11:18:01.598Z,17.9
2022-09-09T11:19:10.103Z,18.0
2022-09-09T11:20:00.323Z,18.0
2022-09-09T11:21:02.653Z,17.9
2022-09-09T11:22:02.086Z,17.9
2022-09-09T11:23:08.248Z,18.3
2022-09-09T11:24:06.563Z,18.3
2022-09-09T11:25:01.199Z,18.2
2022-09-09T11:26:02.155Z,18.2
2022-09-09T11:27:03.445Z,18.1
2022-09-09T11:28:08.999Z,18.1
2022-09-09T11:29:04.577Z,17.9
2022-09-09T11:30:10.140Z,17.9
2022-09-09T11:31:01.199Z,18.1
2022-09-09T11:32:10.090Z,18.1
2022-09-09T11:33:03.394Z,18.1
2022-09-09T11:34:10.090Z,18.1
2022-09-09T11:35:03.391Z,17.9
2022-09-09T11:36:10.090Z,17.9
2022-09-09T11:37:07.807Z,17.9
2022-09-09T11:38:07.563Z,17.9
2022-09-09T11:39:05.985Z,18.0
2022-09-09T11:40:00.310Z,18.0
2022-09-09T11:41:03.732Z,17.9
2022-09-09T11:42:10.086Z,17.9
2022-09-09T11:43:04.827Z,18.0
2022-09-09T11:44:09.173Z,18.0
2022-09-09T11:45:10.099Z,18.2
2022-09-09T11:46:01.698Z,18.2
2022-09-09T11:47:00.162Z,18.5
2022-09-09T11:48:00.981Z,18.5
2022-09-09T11:49:01.275Z,18.7
2022-09-09T11:50:08.970Z,18.7
2022-09-09T11:51:02.083Z,18.3
2022-09-09T11:52:10.089Z,18.3
2022-09-09T11:53:05.561Z,18.2
2022-09-09T11:54:01.488Z,18.2
2022-09-09T11:55:08.448Z,18.4
2022-09-09T11:56:01.983Z,18.4
2022-09-09T11:57:02.168Z,18.2
2022-09-09T11:58:01.027Z,18.2
2022-09-09T11:59:01.396Z,18.2
2022-09-09T12:00:00.228Z,18.2
2022-09-09T12:01:00.173Z,18.3
2022-09-09T12:02:01.921Z,18.3
2022-09-09T12:03:00.240Z,18.5
2022-09-09T12:04:01.174Z,18.5
2022-09-09T12:05:02.411Z,18.4
2022-09-09T12:06:08.935Z,18.4
2022-09-09T12:07:01.558Z,18.4
2022-09-09T12:08:01.581Z,18.4
2022-09-09T12:09:10.093Z,18.4
2022-09-09T12:10:03.127Z,18.4
2022-09-09T12:11:00.175Z,18.3
2022-09-09T12:12:10.093Z,18.3
2022-09-09T12:13:08.225Z,18.4
2022-09-09T12:14:00.627Z,18.4
2022-09-09T12:15:10.184Z,18.4
2022-09-09T12:16:00.660Z,18.4
2022-09-09T12:17:09.230Z,18.2
2022-09-09T12:18:02.855Z,18.2
2022-09-09T12:19:04.307Z,18.2
2022-09-09T12:20:00.932Z,18.2
2022-09-09T12:21:00.136Z,18.3
2022-09-09T12:22:07.222Z,18.3
2022-09-09T12:23:00.135Z,18.3
2022-09-09T12:24:06.138Z,18.3
2022-09-09T12:25:00.137Z,18.3
2022-09-09T12:26:02.074Z,18.3
2022-09-09T12:27:06.505Z,18.4
2022-09-09T12:28:00.136Z,18.4
2022-09-09T12:29:01.139Z,18.5
2022-09-09T12:30:09.468Z,18.5
2022-09-09T12:31:07.544Z,18.4
2022-09-09T12:32:03.960Z,18.4
2022-09-09T12:33:10.101Z,18.7
2022-09-09T12:34:09.524Z,18.7
2022-09-09T12:35:03.032Z,18.7
2022-09-09T12:36:00.516Z,18.7
2022-09-09T12:37:04.928Z,18.6
2022-09-09T12:38:01.612Z,18.6
2022-09-09T12:39:10.093Z,18.8
2022-09-09T12:40:01.922Z,18.8
2022-09-09T12:41:00.174Z,19.0
2022-09-09T12:42:00.163Z,19.0
2022-09-09T12:43:00.490Z,19.2
2022-09-09T12:44:04.426Z,19.2
2022-09-09T12:45:01.005Z,19.5
2022-09-09T12:46:02.741Z,19.5
2022-09-09T12:47:02.746Z,19.3
2022-09-09T12:48:02.792Z,19.3
2022-09-09T12:49:00.171Z,19.5
2022-09-09T12:50:00.180Z,19.5
2022-09-09T12:51:00.266Z,19.4
2022-09-09T12:52:02.683Z,19.4
2022-09-09T12:53:03.684Z,19.5
2022-09-09T12:54:00.576Z,19.5
2022-09-09T12:55:01.880Z,19.6
2022-09-09T12:56:04.793Z,19.6
2022-09-09T12:57:00.352Z,19.5
2022-09-09T12:58:01.262Z,19.5
2022-09-09T12:59:00.274Z,19.7
2022-09-09T13:00:10.099Z,19.7
2022-09-09T13:01:01.292Z,19.5
2022-09-09T13:02:00.287Z,19.5
2022-09-09T13:03:01.650Z,19.7
2022-09-09T13:04:00.250Z,19.7
2022-09-09T13:05:10.350Z,19.7
2022-09-09T13:06:10.089Z,19.7
2022-09-09T13:07:08.038Z,19.5
2022-09-09T13:08:04.130Z,19.5
2022-09-09T13:09:01.214Z,19.6
2022-09-09T13:10:00.180Z,19.6
2022-09-09T13:11:03.110Z,19.6
2022-09-09T13:12:00.305Z,19.6
2022-09-09T13:13:00.304Z,19.5
2022-09-09T13:14:00.503Z,19.5
2022-09-09T13:15:00.203Z,19.4
2022-09-09T13:16:01.240Z,19.4
2022-09-09T13:17:01.743Z,19.0
2022-09-09T13:18:04.532Z,19.0
2022-09-09T13:19:01.112Z,19.0
2022-09-09T13:20:00.295Z,19.0
2022-09-09T13:21:00.420Z,19.1
2022-09-09T13:22:10.087Z,19.1
2022-09-09T13:23:00.169Z,19.1
2022-09-09T13:24:00.232Z,19.1
2022-09-09T13:25:03.770Z,19.0